This is the latest recevied weather packets stored in our database for station/object LRBV. If no packets are shown the sender has not sent any weather packets the latest 10 day(s).
| Time | Temp. | Humidity | Pressure | Rain* | Wind** | Luminosity | Snow |
|---|---|---|---|---|---|---|---|
| 1778052831 | 17.22° C | 56% | 1015 hPa | - | - | - | - |
| 1778051930 | 16.11° C | 59% | 1015 hPa | - | - | - | - |
| 1778051030 | 16.11° C | 59% | 1015 hPa | - | - | - | - |
| 1778050131 | 15° C | 59% | 1015 hPa | - | - | - | - |
| 1778049230 | 15° C | 59% | 1015 hPa | - | - | - | - |
| 1778048331 | 13.89° C | 67% | 1015 hPa | - | - | - | - |
| 1778047432 | 13.89° C | 67% | 1015 hPa | - | - | - | - |
| 1778046532 | 12.22° C | 72% | 1015 hPa | - | - | - | - |
| 1778045639 | 12.22° C | 72% | 1015 hPa | - | - | - | - |
| 1778044731 | 11.11° C | 77% | 1015 hPa | - | - | - | - |
| 1778043844 | 11.11° C | 77% | 1015 hPa | - | - | - | - |
| 1778042946 | 8.89° C | 82% | 1015 hPa | - | - | - | - |
| 1778042034 | 8.89° C | 82% | 1015 hPa | - | - | - | - |
| 1778041131 | 7.22° C | 87% | 1015 hPa | - | - | - | - |
| 1778040230 | 7.22° C | 87% | 1015 hPa | - | - | - | - |
| 1778039331 | 6.11° C | 93% | 1015 hPa | - | - | - | - |
| 1778038430 | 6.11° C | 93% | 1015 hPa | - | - | - | - |
| 1778037530 | 7.22° C | 87% | 1015 hPa | - | - | - | - |
| 1778036630 | 7.22° C | 87% | 1015 hPa | - | - | - | - |
| 1778035730 | 6.11° C | 87% | 1015 hPa | - | - | - | - |
| 1778034830 | 6.11° C | 87% | 1015 hPa | - | - | - | - |
| 1778033928 | 6.11° C | 93% | 1014 hPa | - | - | - | - |
| 1778033030 | 6.11° C | 93% | 1014 hPa | - | - | - | - |
| 1778032130 | 6.11° C | 87% | 1014 hPa | - | - | - | - |
| 1778030331 | 7.22° C | 87% | 1015 hPa | - | - | - | - |
* Rain since midnight (hover to see other rain measurements)
** Current wind speed in m/s (hover to see current wind gust speed)